createdAt,value
2016-11-30T00:00:05.553Z,1.05
2016-11-30T00:01:05.246Z,1.08
2016-11-30T00:02:05.568Z,1.1
2016-11-30T00:03:05.588Z,1.1
2016-11-30T00:04:05.281Z,1.05
2016-11-30T00:05:05.606Z,0.94
2016-11-30T00:06:05.618Z,0.8
2016-11-30T00:07:05.623Z,0.81
2016-11-30T00:08:05.971Z,0.86
2016-11-30T00:09:05.670Z,0.83
2016-11-30T00:10:05.656Z,0.88
2016-11-30T00:11:05.666Z,0.87
2016-11-30T00:12:05.367Z,0.74
2016-11-30T00:13:05.689Z,0.68
2016-11-30T00:14:06.016Z,0.56
2016-11-30T00:15:05.723Z,0.5
2016-11-30T00:16:06.034Z,0.5
2016-11-30T00:17:05.734Z,0.66
2016-11-30T00:18:06.058Z,0.49
2016-11-30T00:19:06.068Z,0.47
2016-11-30T00:20:05.763Z,0.52
2016-11-30T00:21:05.776Z,0.52
2016-11-30T00:22:05.788Z,0.31
2016-11-30T00:23:06.111Z,0.23
2016-11-30T00:24:06.118Z,0.21
2016-11-30T00:25:06.132Z,0.18
2016-11-30T00:26:05.824Z,0.28
2016-11-30T00:27:05.517Z,0.4
2016-11-30T00:28:05.530Z,0.28
2016-11-30T00:29:05.907Z,0.46
2016-11-30T00:30:05.865Z,0.39
2016-11-30T00:31:05.877Z,0.37
2016-11-30T00:32:06.203Z,0.43
2016-11-30T00:33:06.236Z,0.44
2016-11-30T00:34:06.227Z,0.29
2016-11-30T00:35:05.601Z,0.21
2016-11-30T00:36:05.928Z,0.22
2016-11-30T00:37:06.253Z,0.15
2016-11-30T00:38:05.634Z,0.29
2016-11-30T00:39:06.274Z,0.29
2016-11-30T00:40:05.994Z,0.4
2016-11-30T00:41:05.680Z,0.4
2016-11-30T00:42:05.690Z,0.5
2016-11-30T00:43:05.999Z,0.46
2016-11-30T00:44:05.696Z,0.41
2016-11-30T00:45:06.335Z,0.47
2016-11-30T00:46:05.713Z,0.5
2016-11-30T00:47:05.734Z,0.37
2016-11-30T00:48:05.744Z,0.47
2016-11-30T00:49:05.755Z,0.46
2016-11-30T00:50:05.758Z,0.55
2016-11-30T00:51:06.397Z,0.49
2016-11-30T00:52:06.408Z,0.47
2016-11-30T00:53:06.103Z,0.47
2016-11-30T00:54:05.799Z,0.56
2016-11-30T00:55:06.441Z,0.58
2016-11-30T00:56:05.822Z,0.5
2016-11-30T00:57:06.463Z,0.41
2016-11-30T00:58:06.161Z,0.32
2016-11-30T00:59:06.171Z,0.52
2016-11-30T01:00:05.858Z,0.46
2016-11-30T01:01:06.525Z,0.32
2016-11-30T01:02:06.511Z,0.36
2016-11-30T01:03:06.205Z,0.32
2016-11-30T01:04:05.901Z,0.34
2016-11-30T01:05:06.540Z,0.39
2016-11-30T01:06:05.923Z,0.34
2016-11-30T01:07:05.929Z,0.43
2016-11-30T01:08:06.264Z,0.43
2016-11-30T01:09:06.277Z,0.47
2016-11-30T01:10:05.970Z,0.46
2016-11-30T01:11:06.606Z,0.5
2016-11-30T01:12:06.296Z,0.55
2016-11-30T01:13:06.306Z,0.47
2016-11-30T01:14:06.637Z,0.59
2016-11-30T01:15:06.015Z,0.59
2016-11-30T01:16:06.024Z,0.56
2016-11-30T01:17:06.348Z,0.49
2016-11-30T01:18:06.055Z,0.66
2016-11-30T01:19:06.095Z,0.49
2016-11-30T01:20:06.414Z,0.34
2016-11-30T01:21:06.073Z,0.37
2016-11-30T01:22:06.397Z,0.31
2016-11-30T01:23:06.091Z,0.39
2016-11-30T01:24:06.105Z,0.1
2016-11-30T01:25:06.433Z,0.15
2016-11-30T01:26:06.442Z,0.28
2016-11-30T01:27:06.134Z,0.08
2016-11-30T01:28:06.141Z,0.08
2016-11-30T01:29:06.468Z,-0.13
2016-11-30T01:30:06.797Z,-0.15
2016-11-30T01:31:06.491Z,-0.02
2016-11-30T01:32:06.500Z,-0.15
2016-11-30T01:33:06.850Z,-0.07
2016-11-30T01:34:06.519Z,-0.03
2016-11-30T01:35:06.532Z,0.11
2016-11-30T01:36:06.541Z,0.1
2016-11-30T01:37:06.548Z,0.16
2016-11-30T01:38:06.881Z,0.01
2016-11-30T01:39:06.257Z,-0.06
2016-11-30T01:40:06.601Z,-0.08
2016-11-30T01:41:06.620Z,-0.03
2016-11-30T01:42:06.918Z,-0.11
2016-11-30T01:43:06.328Z,0.05
2016-11-30T01:44:06.307Z,-0.06
2016-11-30T01:45:06.950Z,-0.03
2016-11-30T01:46:06.641Z,-0.06
2016-11-30T01:47:06.978Z,0.04
2016-11-30T01:48:06.343Z,0
2016-11-30T01:49:06.702Z,-0.08
2016-11-30T01:50:07.005Z,-0.06
2016-11-30T01:51:07.005Z,0.03
2016-11-30T01:52:06.702Z,-0.06
2016-11-30T01:53:06.713Z,0
2016-11-30T01:54:07.044Z,-0.11
2016-11-30T01:55:06.740Z,-0.18
2016-11-30T01:56:06.428Z,-0.17
2016-11-30T01:57:06.755Z,-0.14
2016-11-30T01:58:07.081Z,-0.1
2016-11-30T01:59:06.769Z,-0.06
2016-11-30T02:00:06.782Z,-0.13
2016-11-30T02:01:06.793Z,-0.02
2016-11-30T02:02:06.803Z,0.03
2016-11-30T02:03:07.129Z,-0.07
2016-11-30T02:04:06.825Z,-0.23
2016-11-30T02:05:06.519Z,-0.26
2016-11-30T02:06:07.163Z,-0.23
2016-11-30T02:07:06.535Z,-0.28
2016-11-30T02:08:06.874Z,-0.15
2016-11-30T02:09:06.871Z,-0.26
2016-11-30T02:10:06.881Z,-0.25
2016-11-30T02:11:07.207Z,-0.25
2016-11-30T02:12:06.924Z,-0.26
2016-11-30T02:13:06.595Z,-0.36
2016-11-30T02:14:06.919Z,-0.26
2016-11-30T02:15:06.934Z,-0.18
2016-11-30T02:16:06.949Z,-0.26
2016-11-30T02:17:06.952Z,-0.21
2016-11-30T02:18:07.300Z,-0.15
2016-11-30T02:19:07.307Z,-0.25
2016-11-30T02:20:06.683Z,-0.36
2016-11-30T02:21:06.990Z,-0.29
2016-11-30T02:22:07.319Z,-0.26
2016-11-30T02:23:07.330Z,-0.23
2016-11-30T02:24:07.334Z,-0.21
2016-11-30T02:25:06.727Z,-0.2
2016-11-30T02:26:07.054Z,-0.25
2016-11-30T02:27:07.365Z,-0.2
2016-11-30T02:28:07.063Z,-0.35
2016-11-30T02:29:06.752Z,-0.31
2016-11-30T02:30:07.406Z,-0.35
2016-11-30T02:31:06.773Z,-0.25
2016-11-30T02:32:06.780Z,-0.2
2016-11-30T02:33:06.802Z,-0.23
2016-11-30T02:34:07.436Z,-0.2
2016-11-30T02:35:07.445Z,-0.18
2016-11-30T02:36:06.818Z,0
2016-11-30T02:37:06.832Z,-0.06
2016-11-30T02:38:07.471Z,-0.03
2016-11-30T02:39:06.854Z,0.01
2016-11-30T02:40:07.504Z,0.04
2016-11-30T02:41:07.502Z,0.04
2016-11-30T02:42:07.196Z,0.08
2016-11-30T02:43:06.892Z,-0.08
2016-11-30T02:44:07.219Z,0.03
2016-11-30T02:45:06.910Z,0.07
2016-11-30T02:46:06.919Z,0.08
2016-11-30T02:47:06.933Z,0.05
2016-11-30T02:48:07.265Z,0.01
2016-11-30T02:49:07.267Z,0.04
2016-11-30T02:50:07.593Z,0.1
2016-11-30T02:51:07.284Z,0.01
2016-11-30T02:52:07.292Z,-0.17
2016-11-30T02:53:06.990Z,-0.2
2016-11-30T02:54:07.009Z,-0.21
2016-11-30T02:55:07.325Z,-0.25
2016-11-30T02:56:07.653Z,-0.49
2016-11-30T02:57:07.345Z,-0.25
2016-11-30T02:58:07.357Z,-0.34
2016-11-30T02:59:07.367Z,-0.23
2016-11-30T03:00:07.375Z,-0.2
2016-11-30T03:01:07.075Z,-0.15
2016-11-30T03:02:07.716Z,-0.17
2016-11-30T03:03:07.408Z,-0.11
2016-11-30T03:04:07.732Z,-0.11
2016-11-30T03:05:07.746Z,0.01
2016-11-30T03:06:07.436Z,0.05
2016-11-30T03:07:07.763Z,0.1
2016-11-30T03:08:07.457Z,0.16
2016-11-30T03:09:07.468Z,0.28
2016-11-30T03:10:07.475Z,0.29
2016-11-30T03:11:07.506Z,0.21
2016-11-30T03:12:07.517Z,0.21
2016-11-30T03:13:07.823Z,0.28
2016-11-30T03:14:07.514Z,0.39
2016-11-30T03:15:07.209Z,0.34
2016-11-30T03:16:07.850Z,0.26
2016-11-30T03:17:07.889Z,0.44
2016-11-30T03:18:07.895Z,0.29
2016-11-30T03:19:07.247Z,0.39
2016-11-30T03:20:07.574Z,0.39
2016-11-30T03:21:07.586Z,0.28
2016-11-30T03:22:07.592Z,0.36
2016-11-30T03:23:07.298Z,0.25
2016-11-30T03:24:07.619Z,0.25
2016-11-30T03:25:07.308Z,0.23
2016-11-30T03:26:07.648Z,0.25
2016-11-30T03:27:07.645Z,0.43
2016-11-30T03:28:07.653Z,0.32
2016-11-30T03:29:07.980Z,0.29
2016-11-30T03:30:07.360Z,0.28
2016-11-30T03:31:08.007Z,0.31
2016-11-30T03:32:07.705Z,0.21
2016-11-30T03:33:08.020Z,0.05
2016-11-30T03:34:07.724Z,0.07
2016-11-30T03:35:08.039Z,0.04
2016-11-30T03:36:07.420Z,0.08
2016-11-30T03:37:07.743Z,0.15
2016-11-30T03:38:07.789Z,0.16
2016-11-30T03:39:07.770Z,0.26
2016-11-30T03:40:08.098Z,0.15
2016-11-30T03:41:07.469Z,0.01
2016-11-30T03:42:07.832Z,-0.02
2016-11-30T03:43:07.812Z,0.21
2016-11-30T03:44:07.502Z,0.31
2016-11-30T03:45:07.828Z,0.29
2016-11-30T03:46:07.836Z,0.25
2016-11-30T03:47:08.160Z,0.37
2016-11-30T03:48:07.541Z,0.21
2016-11-30T03:49:07.865Z,0.28
2016-11-30T03:50:08.215Z,0.32
2016-11-30T03:51:08.200Z,0.29
2016-11-30T03:52:07.897Z,0.23
2016-11-30T03:53:07.907Z,0.11
2016-11-30T03:54:07.916Z,-0.06
2016-11-30T03:55:07.613Z,-0.26
2016-11-30T03:56:07.619Z,-0.15
2016-11-30T03:57:07.650Z,-0.17
2016-11-30T03:58:07.660Z,0
2016-11-30T03:59:07.994Z,0.18
2016-11-30T04:00:08.297Z,0.25
2016-11-30T04:01:07.990Z,0.32
2016-11-30T04:02:07.686Z,0.23
2016-11-30T04:03:08.011Z,0.12
2016-11-30T04:04:08.350Z,0.16
2016-11-30T04:05:07.726Z,0.16
2016-11-30T04:06:07.735Z,0.1
2016-11-30T04:07:08.049Z,0.12
2016-11-30T04:08:08.376Z,0.07
2016-11-30T04:09:08.070Z,-0.06
2016-11-30T04:10:08.398Z,0.01
2016-11-30T04:11:07.779Z,-0.03
2016-11-30T04:12:07.788Z,0.07
2016-11-30T04:13:08.422Z,0.15
2016-11-30T04:14:07.802Z,0.32
2016-11-30T04:15:08.132Z,0.26
2016-11-30T04:16:08.138Z,0.32
2016-11-30T04:17:08.149Z,0.32
2016-11-30T04:18:08.159Z,0.28
2016-11-30T04:19:08.175Z,0.36
2016-11-30T04:20:08.497Z,0.31
2016-11-30T04:21:08.186Z,0.23
2016-11-30T04:22:07.885Z,0.18
2016-11-30T04:23:07.891Z,0.12
2016-11-30T04:24:07.901Z,0.37
2016-11-30T04:25:08.568Z,0.23
2016-11-30T04:26:08.237Z,0.21
2016-11-30T04:27:07.933Z,0.25
2016-11-30T04:28:07.946Z,0.16
2016-11-30T04:29:08.266Z,0.18
2016-11-30T04:30:08.596Z,0.25
2016-11-30T04:31:08.289Z,0.22
2016-11-30T04:32:07.985Z,0.28
2016-11-30T04:33:08.312Z,0.21
2016-11-30T04:34:08.317Z,0.26
2016-11-30T04:35:08.331Z,0.21
2016-11-30T04:36:08.020Z,0.37
2016-11-30T04:37:08.051Z,0.29
2016-11-30T04:38:08.358Z,0.23
2016-11-30T04:39:08.066Z,0.25
2016-11-30T04:40:08.385Z,0.34
2016-11-30T04:41:08.076Z,0.25
2016-11-30T04:42:08.080Z,0.25
2016-11-30T04:43:08.090Z,0.25
2016-11-30T04:44:08.832Z,0.32
2016-11-30T04:45:08.427Z,0.18
2016-11-30T04:46:08.767Z,0.1
2016-11-30T04:47:08.444Z,0.18
2016-11-30T04:48:08.457Z,0.18
2016-11-30T04:49:08.784Z,0.1
2016-11-30T04:50:08.475Z,0.19
2016-11-30T04:51:08.803Z,0.12
2016-11-30T04:52:08.497Z,0.08
2016-11-30T04:53:08.507Z,0.1
2016-11-30T04:54:08.827Z,0.05
2016-11-30T04:55:08.213Z,0.08
2016-11-30T04:56:08.534Z,0.05
2016-11-30T04:57:08.864Z,0.11
2016-11-30T04:58:08.552Z,0.04
2016-11-30T04:59:08.248Z,-0.08
2016-11-30T05:00:08.577Z,-0.13
2016-11-30T05:01:08.897Z,0.04
2016-11-30T05:02:08.280Z,0.04
2016-11-30T05:03:08.599Z,0.04
2016-11-30T05:04:08.611Z,0.1
2016-11-30T05:05:08.619Z,0.11
2016-11-30T05:06:08.631Z,0.16
2016-11-30T05:07:08.960Z,0.23
2016-11-30T05:08:08.648Z,0.19
2016-11-30T05:09:08.973Z,0.15
2016-11-30T05:10:08.676Z,0.21
2016-11-30T05:11:08.679Z,0.22
2016-11-30T05:12:08.370Z,0.07
2016-11-30T05:13:08.700Z,0.11
2016-11-30T05:14:08.392Z,0.12
2016-11-30T05:15:09.036Z,0.08
2016-11-30T05:16:08.735Z,0.25
2016-11-30T05:17:08.420Z,0.28
2016-11-30T05:18:08.747Z,0.28
2016-11-30T05:19:08.441Z,0.28
2016-11-30T05:20:09.091Z,0.26
2016-11-30T05:21:08.774Z,0.34
2016-11-30T05:22:08.790Z,0.32
2016-11-30T05:23:09.109Z,0.37
2016-11-30T05:24:08.805Z,0.39
2016-11-30T05:25:08.502Z,0.43
2016-11-30T05:26:09.144Z,0.37
2016-11-30T05:27:08.519Z,0.36
2016-11-30T05:28:09.171Z,0.34
2016-11-30T05:29:09.199Z,0.37
2016-11-30T05:30:09.186Z,0.4
2016-11-30T05:31:08.876Z,0.52
2016-11-30T05:32:08.905Z,0.52
2016-11-30T05:33:08.916Z,0.4
2016-11-30T05:34:08.904Z,0.36
2016-11-30T05:35:08.918Z,0.32
2016-11-30T05:36:23.497Z,0.29
2016-11-30T05:37:08.622Z,0.34
2016-11-30T05:38:08.629Z,0.37
2016-11-30T05:39:08.984Z,0.26
2016-11-30T05:40:08.982Z,0.37
2016-11-30T05:41:08.974Z,0.44
2016-11-30T05:42:08.672Z,0.32
2016-11-30T05:43:08.995Z,0.44
2016-11-30T05:44:08.693Z,0.32
2016-11-30T05:45:09.332Z,0.21
2016-11-30T05:46:09.350Z,0.12
2016-11-30T05:47:09.047Z,0.16
2016-11-30T05:48:09.042Z,0.05
2016-11-30T05:49:08.739Z,0
2016-11-30T05:50:08.752Z,0.04
2016-11-30T05:51:09.078Z,0.12
2016-11-30T05:52:08.771Z,0.21
2016-11-30T05:53:08.783Z,0.22
2016-11-30T05:54:08.788Z,0.21
2016-11-30T05:55:09.114Z,0.31
2016-11-30T05:56:08.807Z,0.31
2016-11-30T05:57:09.138Z,0.26
2016-11-30T05:58:09.143Z,0.05
2016-11-30T05:59:09.470Z,0.05
2016-11-30T06:00:09.165Z,-0.02
2016-11-30T06:01:09.177Z,-0.15
2016-11-30T06:02:09.701Z,-0.11
2016-11-30T06:03:08.874Z,-0.15
2016-11-30T06:04:09.205Z,-0.02
2016-11-30T06:05:08.902Z,0.12
2016-11-30T06:06:09.227Z,0.12
2016-11-30T06:07:09.257Z,0.12
2016-11-30T06:08:08.925Z,0.1
2016-11-30T06:09:08.938Z,0.23
2016-11-30T06:10:09.261Z,0.15
2016-11-30T06:11:08.953Z,0.11
2016-11-30T06:12:09.595Z,0.12
2016-11-30T06:13:08.979Z,0.16
2016-11-30T06:14:08.985Z,0.21
2016-11-30T06:15:08.994Z,0.28
2016-11-30T06:16:09.634Z,0.37
2016-11-30T06:17:09.331Z,0.36
2016-11-30T06:18:09.362Z,0.29
2016-11-30T06:19:09.351Z,0.31
2016-11-30T06:20:09.674Z,0.26
2016-11-30T06:21:09.368Z,0.23
2016-11-30T06:22:09.692Z,0.36
2016-11-30T06:23:09.389Z,0.37
2016-11-30T06:24:09.080Z,0.34
2016-11-30T06:25:09.743Z,0.29
2016-11-30T06:26:09.730Z,0.28
2016-11-30T06:27:09.753Z,0.43
2016-11-30T06:28:09.446Z,0.4
2016-11-30T06:29:09.451Z,0.55
2016-11-30T06:30:09.464Z,0.49
2016-11-30T06:31:09.802Z,0.46
2016-11-30T06:32:09.809Z,0.52
2016-11-30T06:33:09.502Z,0.55
2016-11-30T06:34:09.835Z,0.49
2016-11-30T06:35:09.192Z,0.55
2016-11-30T06:36:09.519Z,0.65
2016-11-30T06:37:09.847Z,0.63
2016-11-30T06:38:09.868Z,0.65
2016-11-30T06:39:09.872Z,0.73
2016-11-30T06:40:09.563Z,0.62
2016-11-30T06:41:09.568Z,0.74
2016-11-30T06:42:09.578Z,0.8
2016-11-30T06:43:09.910Z,0.8
2016-11-30T06:44:09.918Z,0.8
2016-11-30T06:45:09.934Z,0.7
2016-11-30T06:46:09.304Z,0.73
2016-11-30T06:47:09.318Z,0.73
2016-11-30T06:48:09.961Z,0.74
2016-11-30T06:49:09.965Z,0.73
2016-11-30T06:50:09.347Z,0.7
2016-11-30T06:51:09.669Z,0.77
2016-11-30T06:52:09.393Z,0.74
2016-11-30T06:53:09.689Z,0.77
2016-11-30T06:54:09.385Z,0.73
2016-11-30T06:55:09.710Z,0.62
2016-11-30T06:56:09.406Z,0.73
2016-11-30T06:57:09.733Z,0.69
2016-11-30T06:58:10.089Z,0.66
2016-11-30T06:59:09.752Z,0.68
2016-11-30T07:00:09.765Z,0.76
2016-11-30T07:01:10.089Z,0.69
2016-11-30T07:02:09.473Z,0.7
2016-11-30T07:03:09.476Z,0.74
2016-11-30T07:04:09.487Z,0.7
2016-11-30T07:05:09.495Z,0.76
2016-11-30T07:06:10.141Z,0.66
2016-11-30T07:07:09.838Z,0.76
2016-11-30T07:08:09.846Z,0.8
2016-11-30T07:09:09.540Z,0.76
2016-11-30T07:10:09.876Z,0.76
2016-11-30T07:11:09.888Z,0.83
2016-11-30T07:12:09.573Z,0.76
2016-11-30T07:13:09.898Z,0.81
2016-11-30T07:14:09.905Z,0.83
2016-11-30T07:15:09.918Z,0.91
2016-11-30T07:16:10.242Z,0.92
2016-11-30T07:17:10.257Z,0.92
2016-11-30T07:18:09.953Z,0.94
2016-11-30T07:19:10.272Z,0.95
2016-11-30T07:20:09.654Z,0.92
2016-11-30T07:21:10.295Z,0.92
2016-11-30T07:22:10.304Z,0.96
2016-11-30T07:23:09.685Z,0.92
2016-11-30T07:24:09.699Z,0.88
2016-11-30T07:25:10.030Z,1.02
2016-11-30T07:26:10.037Z,1.05
2016-11-30T07:27:10.041Z,1.08
2016-11-30T07:28:10.067Z,1.12
2016-11-30T07:29:10.378Z,1.13
2016-11-30T07:30:10.072Z,1.16
2016-11-30T07:31:10.086Z,1.13
2016-11-30T07:32:10.097Z,1.24
2016-11-30T07:33:10.118Z,1.23
2016-11-30T07:34:10.129Z,1.28
2016-11-30T07:35:09.823Z,1.14
2016-11-30T07:36:10.455Z,1.3
2016-11-30T07:37:10.149Z,1.28
2016-11-30T07:38:10.475Z,1.3
2016-11-30T07:39:10.163Z,1.32
2016-11-30T07:40:10.497Z,1.31
2016-11-30T07:41:09.879Z,1.22
2016-11-30T07:42:10.519Z,1.23
2016-11-30T07:43:10.532Z,1.19
2016-11-30T07:44:10.224Z,1.32
2016-11-30T07:45:10.235Z,1.31
2016-11-30T07:46:09.927Z,1.37
2016-11-30T07:47:10.256Z,1.44
2016-11-30T07:48:10.583Z,1.49
2016-11-30T07:49:10.612Z,1.42
2016-11-30T07:50:10.601Z,1.58
2016-11-30T07:51:10.647Z,1.6
2016-11-30T07:52:10.624Z,1.62
2016-11-30T07:53:10.008Z,1.62
2016-11-30T07:54:10.329Z,1.71
2016-11-30T07:55:10.342Z,1.7
2016-11-30T07:56:10.354Z,1.7
2016-11-30T07:57:10.680Z,1.8
2016-11-30T07:58:10.380Z,1.74
2016-11-30T07:59:10.385Z,1.78
2016-11-30T08:00:10.394Z,1.85
2016-11-30T08:01:10.414Z,1.89
2016-11-30T08:02:10.419Z,1.94
2016-11-30T08:03:10.436Z,1.99
2016-11-30T08:04:10.756Z,1.81
2016-11-30T08:05:10.133Z,1.95
2016-11-30T08:06:10.782Z,1.97
2016-11-30T08:07:10.810Z,2.04
2016-11-30T08:08:10.181Z,2.18
2016-11-30T08:09:10.494Z,2.08
2016-11-30T08:10:10.506Z,2.14
2016-11-30T08:11:10.516Z,2.2
2016-11-30T08:12:10.530Z,2.25
2016-11-30T08:13:10.857Z,2.26
2016-11-30T08:14:10.241Z,2.33
2016-11-30T08:15:10.248Z,2.31
2016-11-30T08:16:10.888Z,2.25
2016-11-30T08:17:10.585Z,2.35
2016-11-30T08:18:10.594Z,2.36
2016-11-30T08:19:10.608Z,2.43
2016-11-30T08:20:10.621Z,2.42
2016-11-30T08:21:10.949Z,2.44
2016-11-30T08:22:10.326Z,2.46
2016-11-30T08:23:10.652Z,2.49
2016-11-30T08:24:10.664Z,2.6
2016-11-30T08:25:10.376Z,2.54
2016-11-30T08:26:10.697Z,2.62
2016-11-30T08:27:11.014Z,2.75
2016-11-30T08:28:10.716Z,2.87
2016-11-30T08:29:10.722Z,2.89
2016-11-30T08:30:10.733Z,2.93
2016-11-30T08:31:10.430Z,3.01
2016-11-30T08:32:10.767Z,3.01
2016-11-30T08:33:10.458Z,3.13
2016-11-30T08:34:11.096Z,3.25
2016-11-30T08:35:10.478Z,3.22
2016-11-30T08:36:10.491Z,3.19
2016-11-30T08:37:10.816Z,3.21
2016-11-30T08:38:10.516Z,3.32
2016-11-30T08:39:11.163Z,3.32
2016-11-30T08:40:10.854Z,3.29
2016-11-30T08:41:10.867Z,3.36
2016-11-30T08:42:10.881Z,3.32
2016-11-30T08:43:10.892Z,3.23
2016-11-30T08:44:10.908Z,3.34
2016-11-30T08:45:10.600Z,3.42
2016-11-30T08:46:11.262Z,3.47
2016-11-30T08:47:10.954Z,3.59
2016-11-30T08:48:10.950Z,3.62
2016-11-30T08:49:10.646Z,3.65
2016-11-30T08:50:10.978Z,3.66
2016-11-30T08:51:10.993Z,3.81
2016-11-30T08:52:10.683Z,3.92
2016-11-30T08:53:11.332Z,3.92
2016-11-30T08:54:10.707Z,3.8
2016-11-30T08:55:11.349Z,3.91
2016-11-30T08:56:11.054Z,4.01
2016-11-30T08:57:10.751Z,4.06
2016-11-30T08:58:11.390Z,4.14
2016-11-30T08:59:10.770Z,4.2
2016-11-30T09:00:11.099Z,4.32
2016-11-30T09:01:10.794Z,4.49
2016-11-30T09:02:11.436Z,4.58
2016-11-30T09:03:11.479Z,4.66
2016-11-30T09:04:11.169Z,4.87
2016-11-30T09:05:11.510Z,5.1
2016-11-30T09:06:10.859Z,5.38
2016-11-30T09:07:11.503Z,5.68
2016-11-30T09:08:10.886Z,5.89
2016-11-30T09:09:10.901Z,6.11
2016-11-30T09:10:11.548Z,6.19
2016-11-30T09:11:11.245Z,6.64
2016-11-30T09:12:11.256Z,6.93
2016-11-30T09:13:11.270Z,7.1
2016-11-30T09:14:10.968Z,7.2
2016-11-30T09:15:11.301Z,7.15
2016-11-30T09:16:11.005Z,7.31
2016-11-30T09:17:11.648Z,7.35
2016-11-30T09:18:11.344Z,7.45
2016-11-30T09:19:11.371Z,7.56
2016-11-30T09:20:11.062Z,7.54
2016-11-30T09:21:11.394Z,7.8
2016-11-30T09:22:11.422Z,7.97
2016-11-30T09:23:11.447Z,8.01
2016-11-30T09:24:11.453Z,8.08
2016-11-30T09:25:11.137Z,8.19
2016-11-30T09:26:11.156Z,8.38
2016-11-30T09:27:11.486Z,8.48
2016-11-30T09:28:11.182Z,8.76
2016-11-30T09:29:11.851Z,8.95
2016-11-30T09:30:11.217Z,9.19
2016-11-30T09:31:11.544Z,9.16
2016-11-30T09:32:11.566Z,9.23
2016-11-30T09:33:11.584Z,9.32
2016-11-30T09:34:11.279Z,9.5
2016-11-30T09:35:11.645Z,9.66
2016-11-30T09:36:11.644Z,9.83
2016-11-30T09:37:12.001Z,10.05
2016-11-30T09:38:11.665Z,10.25
2016-11-30T09:39:11.697Z,10.35
2016-11-30T09:40:11.707Z,10.48
2016-11-30T09:41:11.739Z,10.51
2016-11-30T09:42:11.739Z,10.68
2016-11-30T09:43:12.081Z,10.84
2016-11-30T09:44:12.123Z,10.89
2016-11-30T09:45:12.107Z,10.96
2016-11-30T09:46:11.492Z,10.89
2016-11-30T09:47:12.154Z,10.79
2016-11-30T09:48:12.189Z,10.6
2016-11-30T09:49:11.880Z,10.35
2016-11-30T09:50:11.576Z,10.42
2016-11-30T09:51:11.588Z,10.6
2016-11-30T09:52:11.946Z,10.69
2016-11-30T09:53:12.256Z,10.92
2016-11-30T09:54:11.647Z,10.72
2016-11-30T09:55:11.992Z,10.54
2016-11-30T09:56:11.683Z,10.51
2016-11-30T09:57:12.017Z,10.69
2016-11-30T09:58:12.043Z,10.82
2016-11-30T09:59:12.373Z,10.93
2016-11-30T10:00:12.381Z,11.15
2016-11-30T10:01:12.405Z,11.33
2016-11-30T10:02:11.787Z,11.44
2016-11-30T10:03:12.438Z,11.29
2016-11-30T10:04:12.161Z,11.14
2016-11-30T10:05:12.162Z,11.22
2016-11-30T10:06:12.177Z,11.37
2016-11-30T10:07:12.215Z,11.54
2016-11-30T10:08:12.214Z,11.5
2016-11-30T10:09:11.925Z,11.54
2016-11-30T10:10:12.566Z,11.5
2016-11-30T10:11:11.967Z,11.7
2016-11-30T10:12:12.603Z,11.87
2016-11-30T10:13:12.322Z,11.97
2016-11-30T10:14:12.025Z,12.07
2016-11-30T10:15:12.343Z,12.24
2016-11-30T10:16:12.677Z,11.95
2016-11-30T10:17:12.409Z,11.81
2016-11-30T10:18:12.434Z,11.59
2016-11-30T10:19:12.445Z,11.57
2016-11-30T10:20:12.118Z,11.55
2016-11-30T10:21:12.452Z,11.44
2016-11-30T10:22:12.485Z,11.57
2016-11-30T10:23:12.843Z,11.77
2016-11-30T10:24:12.825Z,12.03
2016-11-30T10:25:12.874Z,12.25
2016-11-30T10:26:12.867Z,12.49
2016-11-30T10:27:12.900Z,12.4
2016-11-30T10:28:12.588Z,12.25
2016-11-30T10:29:12.322Z,12.22
2016-11-30T10:30:12.660Z,11.99
2016-11-30T10:31:12.331Z,12.1
2016-11-30T10:32:12.981Z,12.1
2016-11-30T10:33:12.688Z,12.03
2016-11-30T10:34:13.025Z,11.99
2016-11-30T10:35:12.730Z,12.1
2016-11-30T10:36:12.753Z,12.1
2016-11-30T10:37:12.785Z,12.18
2016-11-30T10:38:12.794Z,12.21
2016-11-30T10:39:12.815Z,12.28
2016-11-30T10:40:12.852Z,12.55
2016-11-30T10:41:12.535Z,12.73
2016-11-30T10:42:12.861Z,12.76
2016-11-30T10:43:12.884Z,12.58
2016-11-30T10:44:12.594Z,12.45
2016-11-30T10:45:12.617Z,12.42
2016-11-30T10:46:12.626Z,12.46
2016-11-30T10:47:12.645Z,12.79
2016-11-30T10:48:12.978Z,12.73
2016-11-30T10:49:13.318Z,12.79
2016-11-30T10:50:12.707Z,12.79
2016-11-30T10:51:12.724Z,12.78
2016-11-30T10:52:13.069Z,12.78
2016-11-30T10:53:13.082Z,12.87
2016-11-30T10:54:13.099Z,13.01
2016-11-30T10:55:13.442Z,12.93
2016-11-30T10:56:13.136Z,12.94
2016-11-30T10:57:13.156Z,12.9
2016-11-30T10:58:13.177Z,13.01
2016-11-30T10:59:12.882Z,12.97
2016-11-30T11:00:13.219Z,13.01
2016-11-30T11:01:13.236Z,13.13
2016-11-30T11:02:13.251Z,12.8
2016-11-30T11:03:13.285Z,12.75
2016-11-30T11:04:13.615Z,12.8
2016-11-30T11:05:13.657Z,12.85
2016-11-30T11:06:13.659Z,12.95
2016-11-30T11:07:13.358Z,12.79
2016-11-30T11:08:13.375Z,12.86
2016-11-30T11:09:13.400Z,13.03
2016-11-30T11:10:13.730Z,13.2
2016-11-30T11:11:13.436Z,13.3
2016-11-30T11:12:13.137Z,13.09
2016-11-30T11:13:13.475Z,13.11
2016-11-30T11:14:13.818Z,13.12
2016-11-30T11:15:13.512Z,13.22
2016-11-30T11:16:13.209Z,13.13
2016-11-30T11:17:13.577Z,13.22
2016-11-30T11:18:13.586Z,13.13
2016-11-30T11:19:13.911Z,13.13
2016-11-30T11:20:13.611Z,13.15
2016-11-30T11:21:13.628Z,13.13
2016-11-30T11:22:13.356Z,13.12
2016-11-30T11:23:14.000Z,12.94
2016-11-30T11:24:14.004Z,12.9
2016-11-30T11:25:13.739Z,13.04
2016-11-30T11:26:13.743Z,13.22
2016-11-30T11:27:14.070Z,13.39
2016-11-30T11:28:14.078Z,13.59
2016-11-30T11:29:13.796Z,13.62
2016-11-30T11:30:13.806Z,13.68
2016-11-30T11:31:14.148Z,13.87
2016-11-30T11:32:14.159Z,13.85
2016-11-30T11:33:14.191Z,13.81
2016-11-30T11:34:14.196Z,13.87
2016-11-30T11:35:13.612Z,13.81
2016-11-30T11:36:13.926Z,13.9
2016-11-30T11:37:13.941Z,13.78
2016-11-30T11:38:14.278Z,13.87
2016-11-30T11:39:13.680Z,13.85
2016-11-30T11:40:13.691Z,13.97
2016-11-30T11:41:14.037Z,14.03
2016-11-30T11:42:13.734Z,13.95
2016-11-30T11:43:13.745Z,14.1
2016-11-30T11:44:14.116Z,14.05
2016-11-30T11:45:14.107Z,13.87
2016-11-30T11:46:14.155Z,13.85
2016-11-30T11:47:13.838Z,13.96
2016-11-30T11:48:14.478Z,14.08
2016-11-30T11:49:14.205Z,14.03
2016-11-30T11:50:14.202Z,14.07
2016-11-30T11:51:14.558Z,14.18
2016-11-30T11:52:14.259Z,14.29
2016-11-30T11:53:14.275Z,14.3
2016-11-30T11:54:14.285Z,14.35
2016-11-30T11:55:14.302Z,14.3
2016-11-30T11:56:14.322Z,14.36
2016-11-30T11:57:14.361Z,14.37
2016-11-30T11:58:14.365Z,14.47
2016-11-30T11:59:14.381Z,14.47
2016-11-30T12:00:14.101Z,14.5
2016-11-30T12:01:14.740Z,14.5
2016-11-30T12:02:14.149Z,14.35
2016-11-30T12:03:14.791Z,14.12
2016-11-30T12:04:14.232Z,14.12
2016-11-30T12:05:14.502Z,13.97
2016-11-30T12:06:14.842Z,13.96
2016-11-30T12:07:14.561Z,13.95
2016-11-30T12:08:14.579Z,13.89
2016-11-30T12:09:14.921Z,13.97
2016-11-30T12:10:14.618Z,14.1
2016-11-30T12:11:14.643Z,14.11
2016-11-30T12:12:14.337Z,14.03
2016-11-30T12:13:14.368Z,14.11
2016-11-30T12:14:14.693Z,14.22
2016-11-30T12:15:14.396Z,14.37
2016-11-30T12:16:14.728Z,14.33
2016-11-30T12:17:14.752Z,14.35
2016-11-30T12:18:14.768Z,14.36
2016-11-30T12:19:14.803Z,14.53
2016-11-30T12:20:14.494Z,14.53
2016-11-30T12:21:14.832Z,14.5
2016-11-30T12:22:14.855Z,14.5
2016-11-30T12:23:14.875Z,14.59
2016-11-30T12:24:14.889Z,14.6
2016-11-30T12:25:14.914Z,14.6
2016-11-30T12:26:15.033Z,14.59
2016-11-30T12:27:14.964Z,14.65
2016-11-30T12:28:14.977Z,14.5
2016-11-30T12:29:14.997Z,14.5
2016-11-30T12:30:15.013Z,14.4
2016-11-30T12:31:15.356Z,14.29
2016-11-30T12:32:15.058Z,14.33
2016-11-30T12:33:15.093Z,14.36
2016-11-30T12:34:15.104Z,14.22
2016-11-30T12:35:15.146Z,14.25
2016-11-30T12:36:15.457Z,14.37
2016-11-30T12:37:15.487Z,14.22
2016-11-30T12:38:15.518Z,14.15
2016-11-30T12:39:15.201Z,14.32
2016-11-30T12:40:15.223Z,14.44
2016-11-30T12:41:15.574Z,14.43
2016-11-30T12:42:14.945Z,14.51
2016-11-30T12:43:15.283Z,14.5
2016-11-30T12:44:15.308Z,14.48
2016-11-30T12:45:15.339Z,14.35
2016-11-30T12:46:15.348Z,14.36
2016-11-30T12:47:15.684Z,14.45
2016-11-30T12:48:15.074Z,14.45
2016-11-30T12:49:15.733Z,14.55
2016-11-30T12:50:15.428Z,14.77
2016-11-30T12:51:15.462Z,14.82
2016-11-30T12:52:15.154Z,14.84
2016-11-30T12:53:15.177Z,14.72
2016-11-30T12:54:15.509Z,14.69
2016-11-30T12:55:15.535Z,14.91
2016-11-30T12:56:15.875Z,14.89
2016-11-30T12:57:15.264Z,14.91
2016-11-30T12:58:15.911Z,14.89
2016-11-30T12:59:15.631Z,14.89
2016-11-30T13:00:15.633Z,15.02
2016-11-30T13:01:15.658Z,15.04
2016-11-30T13:02:15.360Z,15.07
2016-11-30T13:03:15.694Z,15.04
2016-11-30T13:04:15.716Z,15.11
2016-11-30T13:05:15.773Z,15.03
2016-11-30T13:06:15.763Z,14.94
2016-11-30T13:07:16.108Z,14.85
2016-11-30T13:08:16.122Z,14.94
2016-11-30T13:09:15.825Z,14.94
2016-11-30T13:10:15.845Z,14.88
2016-11-30T13:11:16.191Z,14.89